Air Force Academy, CO

6:52 PM MST on November 15, 2019 (GMT -0700)
Usaf Academy

Weather History for KAFF - May, 2019

Change the Weather History Date:

Wednesday, May 8, 2019

  Actual Average Record
Temperature  
Mean Temperature 40 °F -  
Max Temperature 48 °F 62 °F 79 °F (2011)
Min Temperature 31 °F 36 °F 30 °F (2007)
Degree Days  
Heating Degree Days 25    
Moisture  
Dew Point 38 °F    
Average Humidity 89    
Maximum Humidity 100    
Minimum Humidity 62    
Precipitation  
Precipitation 0.08 in - - ()
Sea Level Pressure  
Sea Level Pressure 29.85 in    
Wind  
Wind Speed 13 mph (NNW)    
Max Wind Speed 26 mph    
Max Gust Speed 31 mph    
Visibility 9 miles    
Events Rain , Snow    
Averages and records for this station are not official NWS values.
T = Trace of Precipitation, MM = Missing Value Source: NWS Daily Summary

Daily Weather History Graph

Daily Weather History Graph

Search for Another Location

Airport or City:

Astronomy

May. 08, 2019 Rise Set
Actual Time 5:53 AM MDT 7:58 PM MDT
Civil Twilight 5:24 AM MDT 8:28 PM MDT
Nautical Twilight 4:48 AM MDT 9:04 PM MDT
Astronomical Twilight 4:09 AM MDT 9:43 PM MDT
Moon 8:53 AM MDT (5/8) No Moon Set
Length of Visible Light 15h 03m
Length of Day
14h 04m
Waxing Crescent, 16% of the Moon is Illuminated
May 8
Waxing Crescent
May 11
First Quarter
May 18
Full
May 26
Last Quarter
Jun 3
New

Hourly Weather History & Observations

Time (MDT) Temp. Windchill Dew Point Humidity Pressure Visibility Wind Dir Wind Speed Gust Speed Precip Events Conditions
12:13 AM 44.6 °F 41.4 °F 44.6 °F 100% 29.80 in 10.0 mi SE 5.8 mph - N/A Rain Light Rain
12:58 AM 48.7 °F - 36.3 °F 62% 29.74 in 10.0 mi WSW 10.4 mph - 0.04 in Rain Light Rain
12:59 AM 48.2 °F - 39.2 °F 71% 29.74 in 10.0 mi WSW 9.2 mph - N/A   Overcast
1:14 AM 44.6 °F 42.2 °F 42.8 °F 93% 29.74 in 10.0 mi North 4.6 mph - N/A   Mostly Cloudy
1:29 AM 44.6 °F 41.4 °F 42.8 °F 93% 29.75 in 10.0 mi West 5.8 mph - N/A   Scattered Clouds
1:58 AM 46.0 °F 43.9 °F 37.9 °F 73% 29.75 in 10.0 mi NNW 4.6 mph - 0.00 in   Scattered Clouds
2:58 AM 43.3 °F 39.9 °F 43.2 °F 99% 29.78 in 10.0 mi North 5.8 mph - N/A   Overcast
3:25 AM 44.6 °F 39.2 °F 44.6 °F 100% 29.75 in 10.0 mi North 10.4 mph - N/A   Overcast
3:58 AM 44.2 °F 38.4 °F 44.1 °F 99% 29.75 in 10.0 mi North 11.5 mph - N/A   Mostly Cloudy
4:28 AM 44.6 °F 39.7 °F 42.8 °F 93% 29.75 in 10.0 mi NNW 9.2 mph - N/A   Mostly Cloudy
4:35 AM 44.6 °F 38.1 °F 44.6 °F 100% 29.75 in 10.0 mi NNW 13.8 mph - N/A Rain Light Rain
4:44 AM 44.6 °F 38.4 °F 44.6 °F 100% 29.75 in 10.0 mi NNW 12.7 mph - N/A   Overcast
4:58 AM 44.6 °F 39.7 °F 43.5 °F 96% 29.75 in 10.0 mi NNW 9.2 mph - 0.00 in   Overcast
4:59 AM 44.6 °F 40.2 °F 42.8 °F 93% 29.75 in 10.0 mi NNW 8.1 mph - N/A   Light Drizzle
5:01 AM 44.6 °F 39.2 °F 42.8 °F 93% 29.75 in 10.0 mi NNW 10.4 mph - N/A   Light Drizzle
5:14 AM 44.6 °F 38.4 °F 44.6 °F 100% 29.75 in 10.0 mi NNW 12.7 mph - N/A   Overcast
5:18 AM 44.6 °F 38.4 °F 44.6 °F 100% 29.75 in 10.0 mi NNW 12.7 mph - N/A   Overcast
5:58 AM 43.7 °F 38.1 °F 43.5 °F 99% 29.74 in 10.0 mi NNW 10.4 mph - 0.00 in   Overcast
6:43 AM 44.6 °F 38.8 °F 42.8 °F 93% 29.75 in 10.0 mi NNW 11.5 mph - N/A   Overcast
6:58 AM 44.1 °F 38.1 °F 42.1 °F 93% 29.75 in 10.0 mi North 11.5 mph - N/A   Overcast
7:40 AM 44.6 °F 38.8 °F 42.8 °F 93% 29.75 in 10.0 mi North 11.5 mph - N/A   Overcast
7:58 AM 44.1 °F 36.8 °F 42.8 °F 95% 29.75 in 10.0 mi NNW 16.1 mph - N/A   Overcast
8:28 AM 44.6 °F 37.4 °F 42.8 °F 93% 29.75 in 10.0 mi NNW 16.1 mph 21.9 mph N/A   Mostly Cloudy
8:54 AM 44.6 °F 36.9 °F 41.0 °F 87% 29.76 in 10.0 mi North 18.4 mph 26.5 mph N/A   Overcast
8:58 AM 44.4 °F 36.6 °F 40.5 °F 86% 29.76 in 10.0 mi North 18.4 mph 26.5 mph N/A   Overcast
9:04 AM 44.6 °F 36.9 °F 41.0 °F 87% 29.76 in 10.0 mi North 18.4 mph 25.3 mph N/A   Light Drizzle
9:12 AM 42.8 °F 35.4 °F 41.0 °F 93% 29.78 in 10.0 mi North 15.0 mph 25.3 mph N/A Rain Light Rain
9:58 AM 42.6 °F 34.9 °F 41.9 °F 97% 29.79 in 10.0 mi North 16.1 mph - 0.01 in Rain Light Rain
10:08 AM 42.8 °F 34.5 °F 42.8 °F 100% 29.79 in 7.0 mi North 18.4 mph - N/A Rain Light Rain
10:58 AM 46.0 °F 38.8 °F 38.8 °F 76% 29.77 in 10.0 mi North 18.4 mph 25.3 mph 0.00 in Rain Light Rain
11:10 AM 46.4 °F 38.5 °F 39.2 °F 76% 29.86 in 10.0 mi NNW 21.9 mph 29.9 mph N/A Rain Light Rain
11:24 AM 46.4 °F 38.3 °F 39.2 °F 76% 29.88 in 10.0 mi NNW 23.0 mph - N/A Rain Light Rain
11:56 AM 45.7 °F 38.0 °F 36.9 °F 71% 29.78 in 10.0 mi NNW 19.6 mph 25.3 mph N/A   Mostly Cloudy
12:37 PM 44.6 °F 35.9 °F 35.6 °F 71% 29.80 in 10.0 mi North 23.0 mph 31.1 mph N/A Rain Light Rain
12:54 PM 44.6 °F 36.1 °F 35.6 °F 71% 29.79 in 10.0 mi NNW 21.9 mph 28.8 mph N/A   Mostly Cloudy
12:56 PM 44.8 °F 35.9 °F 36.0 °F 71% 29.78 in 10.0 mi NNW 24.2 mph 28.8 mph 0.00 in   Mostly Cloudy
1:41 PM 42.8 °F 34.3 °F 33.8 °F 70% 29.82 in 10.0 mi North 19.6 mph 26.5 mph N/A Rain Light Rain
1:56 PM 42.8 °F 34.3 °F 34.3 °F 72% 29.82 in 10.0 mi North 19.6 mph 31.1 mph N/A Rain Light Rain
2:33 PM 44.6 °F 37.2 °F 33.8 °F 66% 29.83 in 10.0 mi NNW 17.3 mph 28.8 mph N/A   Mostly Cloudy
2:56 PM 43.2 °F 34.0 °F 35.1 °F 73% 29.85 in 10.0 mi NNW 23.0 mph 29.9 mph 0.00 in Rain Light Rain
3:05 PM 44.6 °F 36.4 °F 33.8 °F 66% 29.83 in 10.0 mi NNW 20.7 mph 28.8 mph N/A   Mostly Cloudy
3:58 PM 41.0 °F 30.5 °F 33.8 °F 76% 29.86 in 10.0 mi North 26.5 mph - N/A   Mostly Cloudy
4:58 PM 40.3 °F 30.2 °F 32.7 °F 74% 29.87 in 10.0 mi North 23.0 mph 27.6 mph N/A   Overcast
5:04 PM 41.0 °F 30.9 °F 33.8 °F 76% 29.87 in 10.0 mi North 24.2 mph 29.9 mph N/A Rain Light Rain
5:21 PM 39.2 °F 30.5 °F 33.8 °F 81% 29.90 in 10.0 mi North 16.1 mph 24.2 mph N/A Rain Light Rain
5:58 PM 38.7 °F 28.6 °F 34.5 °F 85% 29.92 in 10.0 mi North 20.7 mph - 0.00 in Rain Light Rain
6:13 PM 39.2 °F 30.5 °F 33.8 °F 81% 29.92 in 10.0 mi NNW 16.1 mph 27.6 mph N/A Rain Light Rain
6:28 PM 37.4 °F 28.5 °F 35.6 °F 93% 29.93 in 10.0 mi NNW 15.0 mph - N/A Rain Light Rain
6:58 PM 36.7 °F 27.6 °F 34.9 °F 93% 29.93 in 10.0 mi NNW 15.0 mph 18.4 mph 0.01 in Rain Light Rain
7:28 PM 35.6 °F 25.9 °F 35.6 °F 100% 29.97 in 10.0 mi NNW 16.1 mph - N/A Rain Light Rain
7:58 PM 35.2 °F 24.7 °F 34.7 °F 98% 30.00 in 10.0 mi NNW 18.4 mph - 0.00 in Rain Light Rain
8:28 PM 33.8 °F 25.3 °F 33.8 °F 100% 30.01 in 8.0 mi NNW 11.5 mph - N/A Snow Light Snow
8:43 PM 33.8 °F 23.9 °F 33.8 °F 100% 30.01 in 6.0 mi NNW 15.0 mph - N/A Snow Light Snow
8:58 PM 34.0 °F 25.0 °F 33.8 °F 99% 30.02 in 7.0 mi NNW 12.7 mph - 0.01 in Snow Light Snow
9:13 PM 33.8 °F 23.5 °F 33.8 °F 100% 30.03 in 4.0 mi NNW 16.1 mph - N/A Snow Light Snow
9:28 PM 33.8 °F 23.5 °F 33.8 °F 100% 30.03 in 3.0 mi NNW 16.1 mph - N/A Snow Light Snow
9:58 PM 33.1 °F 24.4 °F 32.9 °F 99% 30.06 in 2.5 mi NNW 11.5 mph - 0.01 in Snow Light Snow
10:01 PM 33.8 °F 26.4 °F 32.0 °F 93% 30.06 in 2.2 mi NNW 9.2 mph - N/A Snow Light Snow
10:31 PM 32.0 °F 20.5 °F 32.0 °F 100% 30.06 in 2.5 mi North 18.4 mph 25.3 mph N/A Snow Light Snow
10:46 PM 32.0 °F 21.6 °F 32.0 °F 100% 30.05 in 4.0 mi North 15.0 mph 23.0 mph N/A Snow Light Snow
10:58 PM 32.2 °F 22.3 °F 32.0 °F 99% 30.05 in 4.0 mi NNW 13.8 mph 21.9 mph 0.00 in Snow Light Snow
11:13 PM 32.0 °F 22.5 °F 32.0 °F 100% 30.06 in 4.0 mi NNW 12.7 mph - N/A Snow Light Snow
11:28 PM 32.0 °F 21.2 °F 32.0 °F 100% 30.06 in 5.0 mi NNW 16.1 mph - N/A Snow Light Snow
11:58 PM 31.8 °F 22.3 °F 31.6 °F 99% 30.06 in 5.0 mi NNW 12.7 mph - 0.00 in Snow Light Snow